sensor_id;sensor_type;location;lat;lon;timestamp;pressure;altitude;pressure_sealevel;temperature;humidity
55066;BME280;40964;42.114;24.220;2023-03-03T00:01:07;98086.44;;;3.99;100.00
55066;BME280;40964;42.114;24.220;2023-03-03T00:03:33;98082.88;;;3.92;100.00
55066;BME280;40964;42.114;24.220;2023-03-03T00:05:58;98047.59;;;3.90;100.00
55066;BME280;40964;42.114;24.220;2023-03-03T00:08:25;98056.53;;;3.95;100.00
55066;BME280;40964;42.114;24.220;2023-03-03T00:10:52;98060.59;;;3.98;100.00
55066;BME280;40964;42.114;24.220;2023-03-03T00:13:24;98064.44;;;4.10;100.00
55066;BME280;40964;42.114;24.220;2023-03-03T00:15:50;98062.78;;;4.17;100.00
55066;BME280;40964;42.114;24.220;2023-03-03T00:20:51;98063.97;;;4.07;100.00
55066;BME280;40964;42.114;24.220;2023-03-03T00:23:34;98052.94;;;4.05;100.00
55066;BME280;40964;42.114;24.220;2023-03-03T00:26:01;98052.72;;;4.14;100.00
55066;BME280;40964;42.114;24.220;2023-03-03T00:28:47;98041.44;;;4.22;100.00
55066;BME280;40964;42.114;24.220;2023-03-03T00:31:19;98027.34;;;4.16;100.00
55066;BME280;40964;42.114;24.220;2023-03-03T00:33:50;98035.34;;;4.07;100.00
55066;BME280;40964;42.114;24.220;2023-03-03T00:38:53;98023.34;;;3.97;100.00
55066;BME280;40964;42.114;24.220;2023-03-03T00:41:22;98026.63;;;3.83;100.00
55066;BME280;40964;42.114;24.220;2023-03-03T00:43:49;98023.56;;;3.80;100.00
55066;BME280;40964;42.114;24.220;2023-03-03T00:46:19;98019.00;;;3.82;100.00
55066;BME280;40964;42.114;24.220;2023-03-03T00:48:46;98021.97;;;3.79;100.00
55066;BME280;40964;42.114;24.220;2023-03-03T00:53:43;98016.72;;;3.87;100.00
55066;BME280;40964;42.114;24.220;2023-03-03T00:56:09;98013.16;;;3.88;100.00
55066;BME280;40964;42.114;24.220;2023-03-03T00:58:34;98014.63;;;3.82;100.00
55066;BME280;40964;42.114;24.220;2023-03-03T01:01:00;98009.06;;;3.85;100.00
55066;BME280;40964;42.114;24.220;2023-03-03T01:03:26;97999.97;;;3.89;100.00
55066;BME280;40964;42.114;24.220;2023-03-03T01:05:52;98004.53;;;3.87;100.00
55066;BME280;40964;42.114;24.220;2023-03-03T01:08:19;97999.63;;;3.92;100.00
55066;BME280;40964;42.114;24.220;2023-03-03T01:10:55;97993.09;;;3.96;100.00
55066;BME280;40964;42.114;24.220;2023-03-03T01:13:25;97994.91;;;3.96;100.00
55066;BME280;40964;42.114;24.220;2023-03-03T01:15:52;97985.81;;;3.84;100.00
55066;BME280;40964;42.114;24.220;2023-03-03T01:18:17;98005.53;;;3.78;100.00
55066;BME280;40964;42.114;24.220;2023-03-03T01:20:43;97991.88;;;3.76;100.00
55066;BME280;40964;42.114;24.220;2023-03-03T01:23:09;97993.47;;;3.85;100.00
55066;BME280;40964;42.114;24.220;2023-03-03T01:25:34;97994.63;;;3.83;100.00
55066;BME280;40964;42.114;24.220;2023-03-03T01:28:01;97988.25;;;3.85;100.00
55066;BME280;40964;42.114;24.220;2023-03-03T01:30:26;97986.47;;;3.86;100.00
55066;BME280;40964;42.114;24.220;2023-03-03T01:32:52;97993.25;;;3.95;100.00
55066;BME280;40964;42.114;24.220;2023-03-03T01:35:17;97992.94;;;3.98;100.00
55066;BME280;40964;42.114;24.220;2023-03-03T01:37:44;97999.44;;;3.94;100.00
55066;BME280;40964;42.114;24.220;2023-03-03T01:40:19;97994.91;;;3.96;100.00
55066;BME280;40964;42.114;24.220;2023-03-03T01:42:45;97989.25;;;3.84;100.00
55066;BME280;40964;42.114;24.220;2023-03-03T01:45:30;97986.63;;;3.84;100.00
55066;BME280;40964;42.114;24.220;2023-03-03T01:48:27;97995.72;;;3.96;100.00
55066;BME280;40964;42.114;24.220;2023-03-03T01:50:57;97988.38;;;4.00;100.00
55066;BME280;40964;42.114;24.220;2023-03-03T01:53:33;97988.69;;;4.05;100.00
55066;BME280;40964;42.114;24.220;2023-03-03T01:56:02;97980.69;;;4.07;100.00
55066;BME280;40964;42.114;24.220;2023-03-03T01:58:39;97940.16;;;3.81;100.00
55066;BME280;40964;42.114;24.220;2023-03-03T02:01:13;97973.16;;;4.12;100.00
55066;BME280;40964;42.114;24.220;2023-03-03T02:03:40;97973.53;;;4.09;100.00
55066;BME280;40964;42.114;24.220;2023-03-03T02:06:09;97961.53;;;3.99;100.00
55066;BME280;40964;42.114;24.220;2023-03-03T02:08:50;97964.50;;;3.96;100.00
55066;BME280;40964;42.114;24.220;2023-03-03T02:11:19;97972.19;;;4.13;100.00
55066;BME280;40964;42.114;24.220;2023-03-03T02:13:45;97971.91;;;4.08;100.00
55066;BME280;40964;42.114;24.220;2023-03-03T02:16:11;97961.47;;;4.16;100.00
55066;BME280;40964;42.114;24.220;2023-03-03T02:18:36;97959.25;;;4.27;100.00
55066;BME280;40964;42.114;24.220;2023-03-03T02:21:15;97965.91;;;4.30;100.00
55066;BME280;40964;42.114;24.220;2023-03-03T02:24:08;97954.81;;;4.36;100.00
55066;BME280;40964;42.114;24.220;2023-03-03T02:26:40;97943.13;;;4.32;100.00
55066;BME280;40964;42.114;24.220;2023-03-03T02:29:08;97908.56;;;3.92;100.00
55066;BME280;40964;42.114;24.220;2023-03-03T02:31:34;97943.56;;;4.13;100.00
55066;BME280;40964;42.114;24.220;2023-03-03T02:33:59;97952.84;;;4.15;100.00
55066;BME280;40964;42.114;24.220;2023-03-03T02:36:27;97944.97;;;4.23;100.00
55066;BME280;40964;42.114;24.220;2023-03-03T02:39:22;97957.56;;;4.12;100.00
55066;BME280;40964;42.114;24.220;2023-03-03T02:44:17;97959.59;;;3.93;100.00
55066;BME280;40964;42.114;24.220;2023-03-03T02:46:45;97958.34;;;3.89;100.00
55066;BME280;40964;42.114;24.220;2023-03-03T02:49:14;97954.59;;;3.84;100.00
55066;BME280;40964;42.114;24.220;2023-03-03T02:51:40;97961.22;;;3.94;100.00
55066;BME280;40964;42.114;24.220;2023-03-03T02:54:08;97961.19;;;4.03;100.00
55066;BME280;40964;42.114;24.220;2023-03-03T02:56:34;97941.44;;;3.85;100.00
55066;BME280;40964;42.114;24.220;2023-03-03T02:59:00;97948.38;;;3.93;100.00
55066;BME280;40964;42.114;24.220;2023-03-03T03:01:25;97959.28;;;3.96;100.00
55066;BME280;40964;42.114;24.220;2023-03-03T03:03:51;97952.47;;;3.95;100.00
55066;BME280;40964;42.114;24.220;2023-03-03T03:06:17;97957.03;;;3.85;100.00
55066;BME280;40964;42.114;24.220;2023-03-03T03:08:42;97954.78;;;3.82;100.00
55066;BME280;40964;42.114;24.220;2023-03-03T03:11:08;97952.53;;;3.79;100.00
55066;BME280;40964;42.114;24.220;2023-03-03T03:13:34;97953.53;;;3.70;100.00
55066;BME280;40964;42.114;24.220;2023-03-03T03:15:59;97950.28;;;3.68;100.00
55066;BME280;40964;42.114;24.220;2023-03-03T03:18:26;97952.88;;;3.68;100.00
55066;BME280;40964;42.114;24.220;2023-03-03T03:20:51;97944.25;;;3.76;100.00
55066;BME280;40964;42.114;24.220;2023-03-03T03:23:17;97947.00;;;3.74;100.00
55066;BME280;40964;42.114;24.220;2023-03-03T03:25:43;97945.03;;;3.76;100.00
55066;BME280;40964;42.114;24.220;2023-03-03T03:28:12;97942.44;;;3.76;100.00
55066;BME280;40964;42.114;24.220;2023-03-03T03:30:38;97939.56;;;3.71;100.00
55066;BME280;40964;42.114;24.220;2023-03-03T03:33:03;97952.06;;;3.67;100.00
55066;BME280;40964;42.114;24.220;2023-03-03T03:35:29;97946.56;;;3.70;100.00
55066;BME280;40964;42.114;24.220;2023-03-03T03:37:54;97946.56;;;3.70;100.00
55066;BME280;40964;42.114;24.220;2023-03-03T03:40:20;97945.41;;;3.73;100.00
55066;BME280;40964;42.114;24.220;2023-03-03T03:42:45;97953.84;;;3.75;100.00
55066;BME280;40964;42.114;24.220;2023-03-03T03:45:11;97944.75;;;3.71;100.00
55066;BME280;40964;42.114;24.220;2023-03-03T03:47:40;97948.34;;;3.70;100.00
55066;BME280;40964;42.114;24.220;2023-03-03T03:50:07;97947.69;;;3.68;100.00
55066;BME280;40964;42.114;24.220;2023-03-03T03:52:33;97946.56;;;3.70;100.00
55066;BME280;40964;42.114;24.220;2023-03-03T03:54:59;97949.47;;;3.67;100.00
55066;BME280;40964;42.114;24.220;2023-03-03T03:57:25;97934.75;;;3.60;100.00
55066;BME280;40964;42.114;24.220;2023-03-03T03:59:50;97943.00;;;3.63;100.00
55066;BME280;40964;42.114;24.220;2023-03-03T04:02:16;97942.00;;;3.73;100.00
55066;BME280;40964;42.114;24.220;2023-03-03T04:04:41;97944.75;;;3.71;100.00
55066;BME280;40964;42.114;24.220;2023-03-03T04:07:07;97943.25;;;3.77;100.00
55066;BME280;40964;42.114;24.220;2023-03-03T04:09:32;97921.78;;;3.83;100.00
55066;BME280;40964;42.114;24.220;2023-03-03T04:11:58;97936.72;;;3.89;100.00
55066;BME280;40964;42.114;24.220;2023-03-03T04:14:23;97944.34;;;3.90;100.00
55066;BME280;40964;42.114;24.220;2023-03-03T04:16:49;97938.03;;;3.85;100.00
55066;BME280;40964;42.114;24.220;2023-03-03T04:19:14;97938.81;;;3.85;100.00
55066;BME280;40964;42.114;24.220;2023-03-03T04:21:40;97941.63;;;3.76;100.00
55066;BME280;40964;42.114;24.220;2023-03-03T04:24:05;97937.94;;;3.70;100.00
55066;BME280;40964;42.114;24.220;2023-03-03T04:26:31;97943.91;;;3.79;100.00
55066;BME280;40964;42.114;24.220;2023-03-03T04:28:57;97950.53;;;3.89;100.00
55066;BME280;40964;42.114;24.220;2023-03-03T04:31:23;97945.50;;;3.88;100.00
55066;BME280;40964;42.114;24.220;2023-03-03T04:33:50;97951.16;;;3.91;100.00
55066;BME280;40964;42.114;24.220;2023-03-03T04:36:16;97951.72;;;3.79;100.00
55066;BME280;40964;42.114;24.220;2023-03-03T04:38:42;97949.78;;;3.73;100.00
55066;BME280;40964;42.114;24.220;2023-03-03T04:41:07;97938.41;;;3.74;100.00
55066;BME280;40964;42.114;24.220;2023-03-03T04:43:33;97944.91;;;3.78;100.00
55066;BME280;40964;42.114;24.220;2023-03-03T04:45:58;97933.72;;;3.69;100.00
55066;BME280;40964;42.114;24.220;2023-03-03T04:48:24;97934.16;;;3.81;100.00
55066;BME280;40964;42.114;24.220;2023-03-03T04:50:49;97939.00;;;3.84;100.00
55066;BME280;40964;42.114;24.220;2023-03-03T04:53:14;97946.97;;;3.82;100.00
55066;BME280;40964;42.114;24.220;2023-03-03T04:55:40;97905.75;;;3.71;100.00
55066;BME280;40964;42.114;24.220;2023-03-03T04:58:05;97940.41;;;3.94;100.00
55066;BME280;40964;42.114;24.220;2023-03-03T05:00:31;97932.19;;;3.83;100.00
55066;BME280;40964;42.114;24.220;2023-03-03T05:02:57;97942.09;;;3.87;100.00
55066;BME280;40964;42.114;24.220;2023-03-03T05:05:23;97954.41;;;3.93;100.00
55066;BME280;40964;42.114;24.220;2023-03-03T05:07:49;97955.09;;;3.87;100.00
55066;BME280;40964;42.114;24.220;2023-03-03T05:10:14;97944.25;;;3.76;100.00
55066;BME280;40964;42.114;24.220;2023-03-03T05:12:40;97950.56;;;3.81;100.00
55066;BME280;40964;42.114;24.220;2023-03-03T05:15:06;97947.16;;;3.81;100.00
55066;BME280;40964;42.114;24.220;2023-03-03T05:17:32;97949.28;;;3.77;100.00
55066;BME280;40964;42.114;24.220;2023-03-03T05:19:58;97952.19;;;3.82;100.00
55066;BME280;40964;42.114;24.220;2023-03-03T05:22:23;97948.31;;;3.78;100.00
55066;BME280;40964;42.114;24.220;2023-03-03T05:24:49;97955.09;;;3.87;100.00
55066;BME280;40964;42.114;24.220;2023-03-03T05:27:15;97953.09;;;3.97;100.00
55066;BME280;40964;42.114;24.220;2023-03-03T05:29:41;97959.16;;;3.90;100.00
55066;BME280;40964;42.114;24.220;2023-03-03T05:32:06;97954.75;;;3.90;100.00
55066;BME280;40964;42.114;24.220;2023-03-03T05:34:32;97952.50;;;3.87;100.00
55066;BME280;40964;42.114;24.220;2023-03-03T05:36:57;97955.13;;;3.79;100.00
55066;BME280;40964;42.114;24.220;2023-03-03T05:39:23;97959.72;;;3.69;100.00
55066;BME280;40964;42.114;24.220;2023-03-03T05:41:48;97960.69;;;3.68;100.00
55066;BME280;40964;42.114;24.220;2023-03-03T05:44:14;97938.63;;;3.56;100.00
55066;BME280;40964;42.114;24.220;2023-03-03T05:46:39;97954.22;;;3.64;100.00
55066;BME280;40964;42.114;24.220;2023-03-03T05:49:06;97964.28;;;3.59;100.00
55066;BME280;40964;42.114;24.220;2023-03-03T05:51:32;97961.19;;;3.63;100.00
55066;BME280;40964;42.114;24.220;2023-03-03T05:53:57;97971.06;;;3.76;100.00
55066;BME280;40964;42.114;24.220;2023-03-03T05:56:23;97969.41;;;3.83;100.00
55066;BME280;40964;42.114;24.220;2023-03-03T05:58:48;97967.63;;;3.84;100.00
55066;BME280;40964;42.114;24.220;2023-03-03T06:01:14;97930.50;;;3.59;100.00
55066;BME280;40964;42.114;24.220;2023-03-03T06:03:39;97971.66;;;3.86;100.00
55066;BME280;40964;42.114;24.220;2023-03-03T06:06:05;97964.81;;;3.93;100.00
55066;BME280;40964;42.114;24.220;2023-03-03T06:08:31;97968.09;;;3.87;100.00
55066;BME280;40964;42.114;24.220;2023-03-03T06:10:57;97957.91;;;3.78;100.00
55066;BME280;40964;42.114;24.220;2023-03-03T06:13:22;97971.16;;;3.91;100.00
55066;BME280;40964;42.114;24.220;2023-03-03T06:15:48;97976.03;;;3.94;100.00
55066;BME280;40964;42.114;24.220;2023-03-03T06:18:13;97969.34;;;3.99;100.00
55066;BME280;40964;42.114;24.220;2023-03-03T06:20:39;97981.38;;;4.01;100.00
55066;BME280;40964;42.114;24.220;2023-03-03T06:23:04;97977.00;;;3.93;100.00
55066;BME280;40964;42.114;24.220;2023-03-03T06:25:30;97975.72;;;3.97;100.00
55066;BME280;40964;42.114;24.220;2023-03-03T06:27:56;97979.75;;;3.99;100.00
55066;BME280;40964;42.114;24.220;2023-03-03T06:30:22;97978.41;;;4.04;100.00
55066;BME280;40964;42.114;24.220;2023-03-03T06:32:47;97983.59;;;4.12;100.00
55066;BME280;40964;42.114;24.220;2023-03-03T06:35:13;97980.97;;;4.12;100.00
55066;BME280;40964;42.114;24.220;2023-03-03T06:37:38;97982.66;;;4.05;100.00
55066;BME280;40964;42.114;24.220;2023-03-03T06:40:04;97985.31;;;3.96;100.00
55066;BME280;40964;42.114;24.220;2023-03-03T06:42:30;97987.56;;;3.99;100.00
55066;BME280;40964;42.114;24.220;2023-03-03T06:44:55;97994.22;;;4.02;100.00
55066;BME280;40964;42.114;24.220;2023-03-03T06:47:21;97989.81;;;4.03;100.00
55066;BME280;40964;42.114;24.220;2023-03-03T06:49:47;97986.84;;;4.14;100.00
55066;BME280;40964;42.114;24.220;2023-03-03T06:52:16;97981.97;;;4.11;100.00
55066;BME280;40964;42.114;24.220;2023-03-03T06:54:43;97986.16;;;4.20;100.00
55066;BME280;40964;42.114;24.220;2023-03-03T06:57:17;97989.38;;;4.22;100.00
55066;BME280;40964;42.114;24.220;2023-03-03T06:59:47;97985.16;;;4.21;100.00
55066;BME280;40964;42.114;24.220;2023-03-03T07:02:16;97986.00;;;4.13;100.00
55066;BME280;40964;42.114;24.220;2023-03-03T07:04:42;97987.00;;;4.12;100.00
55066;BME280;40964;42.114;24.220;2023-03-03T07:07:20;97986.19;;;4.12;100.00
55066;BME280;40964;42.114;24.220;2023-03-03T07:09:49;97989.72;;;4.19;100.00
55066;BME280;40964;42.114;24.220;2023-03-03T07:12:18;97997.50;;;4.27;100.00
55066;BME280;40964;42.114;24.220;2023-03-03T07:17:38;97992.59;;;4.32;100.00
55066;BME280;40964;42.114;24.220;2023-03-03T07:20:34;97991.97;;;4.22;100.00
55066;BME280;40964;42.114;24.220;2023-03-03T07:23:22;97994.81;;;4.12;100.00
55066;BME280;40964;42.114;24.220;2023-03-03T07:25:48;97992.09;;;4.06;100.00
55066;BME280;40964;42.114;24.220;2023-03-03T07:28:24;97994.13;;;4.18;100.00
55066;BME280;40964;42.114;24.220;2023-03-03T07:30:51;97994.53;;;4.30;100.00
55066;BME280;40964;42.114;24.220;2023-03-03T07:35:48;97991.13;;;4.30;100.00
55066;BME280;40964;42.114;24.220;2023-03-03T07:38:34;97997.09;;;4.38;100.00
55066;BME280;40964;42.114;24.220;2023-03-03T07:41:04;97987.00;;;4.43;100.00
55066;BME280;40964;42.114;24.220;2023-03-03T07:43:37;97990.69;;;4.49;100.00
55066;BME280;40964;42.114;24.220;2023-03-03T07:48:41;97989.00;;;4.56;100.00
55066;BME280;40964;42.114;24.220;2023-03-03T07:51:26;97988.16;;;4.64;100.00
55066;BME280;40964;42.114;24.220;2023-03-03T07:54:45;97974.84;;;4.36;100.00
55066;BME280;40964;42.114;24.220;2023-03-03T07:56:46;97982.06;;;4.25;100.00
55066;BME280;40964;42.114;24.220;2023-03-03T07:59:22;97985.38;;;4.42;100.00
55066;BME280;40964;42.114;24.220;2023-03-03T08:01:54;97985.34;;;4.50;100.00
55066;BME280;40964;42.114;24.220;2023-03-03T08:04:40;97985.19;;;4.44;100.00
55066;BME280;40964;42.114;24.220;2023-03-03T08:07:17;97976.03;;;4.48;100.00
55066;BME280;40964;42.114;24.220;2023-03-03T08:09:46;97975.16;;;4.41;100.00
55066;BME280;40964;42.114;24.220;2023-03-03T08:15:23;97977.28;;;4.60;100.00
55066;BME280;40964;42.114;24.220;2023-03-03T08:17:51;97979.03;;;4.68;100.00
55066;BME280;40964;42.114;24.220;2023-03-03T08:23:08;97970.63;;;4.80;100.00
55066;BME280;40964;42.114;24.220;2023-03-03T08:25:33;97969.19;;;4.93;100.00
55066;BME280;40964;42.114;24.220;2023-03-03T08:27:58;97967.41;;;4.93;100.00
55066;BME280;40964;42.114;24.220;2023-03-03T08:30:24;97968.00;;;5.03;100.00
55066;BME280;40964;42.114;24.220;2023-03-03T08:32:49;97966.81;;;5.21;100.00
55066;BME280;40964;42.114;24.220;2023-03-03T08:35:15;97961.38;;;5.30;100.00
55066;BME280;40964;42.114;24.220;2023-03-03T08:37:40;97950.56;;;5.33;100.00
55066;BME280;40964;42.114;24.220;2023-03-03T08:40:06;97957.41;;;5.34;100.00
55066;BME280;40964;42.114;24.220;2023-03-03T08:42:32;97960.47;;;5.23;100.00
55066;BME280;40964;42.114;24.220;2023-03-03T08:44:57;97954.81;;;5.34;100.00
55066;BME280;40964;42.114;24.220;2023-03-03T08:47:23;97943.72;;;5.47;100.00
55066;BME280;40964;42.114;24.220;2023-03-03T08:49:48;97951.13;;;5.58;100.00
55066;BME280;40964;42.114;24.220;2023-03-03T08:52:14;97946.25;;;5.70;100.00
55066;BME280;40964;42.114;24.220;2023-03-03T08:54:39;97945.69;;;5.75;100.00
55066;BME280;40964;42.114;24.220;2023-03-03T08:57:05;97952.72;;;5.74;100.00
55066;BME280;40964;42.114;24.220;2023-03-03T08:59:30;97949.84;;;5.54;100.00
55066;BME280;40964;42.114;24.220;2023-03-03T09:02:01;97949.69;;;5.41;100.00
55066;BME280;40964;42.114;24.220;2023-03-03T09:04:27;97941.47;;;5.74;100.00
55066;BME280;40964;42.114;24.220;2023-03-03T09:06:52;97947.88;;;5.71;100.00
55066;BME280;40964;42.114;24.220;2023-03-03T09:09:18;97944.16;;;5.65;100.00
55066;BME280;40964;42.114;24.220;2023-03-03T09:11:43;97947.06;;;5.70;100.00
55066;BME280;40964;42.114;24.220;2023-03-03T09:14:14;97945.91;;;5.58;100.00
55066;BME280;40964;42.114;24.220;2023-03-03T09:16:46;97947.88;;;5.86;100.00
55066;BME280;40964;42.114;24.220;2023-03-03T09:21:53;97950.00;;;6.12;97.91
55066;BME280;40964;42.114;24.220;2023-03-03T09:24:30;97942.56;;;6.30;99.69
55066;BME280;40964;42.114;24.220;2023-03-03T09:27:00;97944.41;;;6.36;98.06
55066;BME280;40964;42.114;24.220;2023-03-03T09:29:27;97952.03;;;6.52;96.79
55066;BME280;40964;42.114;24.220;2023-03-03T09:31:56;97949.09;;;6.62;94.96
55066;BME280;40964;42.114;24.220;2023-03-03T09:36:53;97938.28;;;6.65;97.24
55066;BME280;40964;42.114;24.220;2023-03-03T09:39:21;97939.94;;;6.73;98.75
55066;BME280;40964;42.114;24.220;2023-03-03T10:13:00;97924.81;;;6.04;100.00
55066;BME280;40964;42.114;24.220;2023-03-03T10:15:38;97921.53;;;6.17;100.00
55066;BME280;40964;42.114;24.220;2023-03-03T10:23:31;97902.69;;;5.70;100.00
55066;BME280;40964;42.114;24.220;2023-03-03T10:31:34;97919.44;;;5.91;99.38
55066;BME280;40964;42.114;24.220;2023-03-03T10:37:12;97904.72;;;5.90;99.87
55066;BME280;40964;42.114;24.220;2023-03-03T10:39:46;97910.75;;;6.05;100.00
55066;BME280;40964;42.114;24.220;2023-03-03T10:42:40;97900.75;;;6.09;100.00
55066;BME280;40964;42.114;24.220;2023-03-03T10:45:30;97898.22;;;6.15;99.34
55066;BME280;40964;42.114;24.220;2023-03-03T10:51:32;97905.31;;;6.21;97.65
55066;BME280;40964;42.114;24.220;2023-03-03T10:53:43;97890.00;;;6.18;96.70
55066;BME280;40964;42.114;24.220;2023-03-03T11:01:47;97874.00;;;6.28;100.00
55066;BME280;40964;42.114;24.220;2023-03-03T11:04:46;97883.78;;;6.41;99.94
55066;BME280;40964;42.114;24.220;2023-03-03T11:18:34;97855.88;;;6.69;95.98
55066;BME280;40964;42.114;24.220;2023-03-03T11:21:09;97859.34;;;6.76;95.86
55066;BME280;40964;42.114;24.220;2023-03-03T11:23:57;97860.16;;;6.77;97.04
55066;BME280;40964;42.114;24.220;2023-03-03T11:37:45;97836.78;;;6.69;96.87
55066;BME280;40964;42.114;24.220;2023-03-03T11:40:20;97834.75;;;6.92;92.94
55066;BME280;40964;42.114;24.220;2023-03-03T11:45:18;97836.34;;;6.93;93.91
55066;BME280;40964;42.114;24.220;2023-03-03T11:50:34;97825.09;;;6.93;92.67
55066;BME280;40964;42.114;24.220;2023-03-03T11:55:40;97826.13;;;7.39;95.04
55066;BME280;40964;42.114;24.220;2023-03-03T11:58:24;97826.97;;;7.53;91.31
55066;BME280;40964;42.114;24.220;2023-03-03T12:00:57;97813.09;;;7.59;90.20
55066;BME280;40964;42.114;24.220;2023-03-03T12:03:29;97810.69;;;7.58;89.69
55066;BME280;40964;42.114;24.220;2023-03-03T12:09:02;97804.94;;;7.95;88.73
55066;BME280;40964;42.114;24.220;2023-03-03T12:17:26;97800.38;;;8.37;84.75
55066;BME280;40964;42.114;24.220;2023-03-03T12:19:59;97808.84;;;8.46;82.75
55066;BME280;40964;42.114;24.220;2023-03-03T12:22:34;97805.59;;;8.37;84.12
55066;BME280;40964;42.114;24.220;2023-03-03T12:25:41;97801.56;;;8.41;83.76
55066;BME280;40964;42.114;24.220;2023-03-03T12:28:16;97799.91;;;8.14;85.55
55066;BME280;40964;42.114;24.220;2023-03-03T12:39:29;97805.59;;;8.50;87.23
55066;BME280;40964;42.114;24.220;2023-03-03T12:42:09;97798.13;;;8.61;85.42
55066;BME280;40964;42.114;24.220;2023-03-03T12:45:06;97794.91;;;8.59;84.29
55066;BME280;40964;42.114;24.220;2023-03-03T12:52:34;97801.66;;;7.80;86.26
55066;BME280;40964;42.114;24.220;2023-03-03T12:55:13;97784.94;;;7.68;89.43
55066;BME280;40964;42.114;24.220;2023-03-03T13:03:28;97786.22;;;7.92;86.80
55066;BME280;40964;42.114;24.220;2023-03-03T13:14:37;97789.66;;;8.59;84.62
55066;BME280;40964;42.114;24.220;2023-03-03T13:24:05;97782.56;;;8.79;83.33
55066;BME280;40964;42.114;24.220;2023-03-03T13:26:45;97782.19;;;8.62;82.92
55066;BME280;40964;42.114;24.220;2023-03-03T13:29:34;97774.94;;;8.58;83.05
55066;BME280;40964;42.114;24.220;2023-03-03T13:34:56;97769.06;;;8.62;84.41
55066;BME280;40964;42.114;24.220;2023-03-03T13:37:31;97774.72;;;8.59;84.93
55066;BME280;40964;42.114;24.220;2023-03-03T13:40:13;97779.59;;;8.56;83.95
55066;BME280;40964;42.114;24.220;2023-03-03T13:48:51;97772.31;;;8.58;86.19
55066;BME280;40964;42.114;24.220;2023-03-03T13:51:06;97769.88;;;8.76;83.26
55066;BME280;40964;42.114;24.220;2023-03-03T13:53:52;97767.41;;;8.88;84.69
55066;BME280;40964;42.114;24.220;2023-03-03T14:07:12;97761.13;;;9.08;82.48
55066;BME280;40964;42.114;24.220;2023-03-03T14:12:14;97759.25;;;9.16;81.03
55066;BME280;40964;42.114;24.220;2023-03-03T14:14:56;97756.91;;;8.88;81.62
55066;BME280;40964;42.114;24.220;2023-03-03T14:17:37;97747.28;;;8.68;85.62
55066;BME280;40964;42.114;24.220;2023-03-03T14:20:27;97752.69;;;8.87;87.65
55066;BME280;40964;42.114;24.220;2023-03-03T14:23:22;97748.25;;;8.87;86.90
55066;BME280;40964;42.114;24.220;2023-03-03T14:26:08;97748.22;;;9.00;84.17
55066;BME280;40964;42.114;24.220;2023-03-03T14:28:42;97739.13;;;9.03;85.50
55066;BME280;40964;42.114;24.220;2023-03-03T14:33:55;97745.53;;;9.14;84.67
55066;BME280;40964;42.114;24.220;2023-03-03T14:36:35;97744.13;;;9.18;84.09
55066;BME280;40964;42.114;24.220;2023-03-03T14:39:01;97741.88;;;9.21;84.52
55066;BME280;40964;42.114;24.220;2023-03-03T14:41:40;97734.38;;;9.25;83.64
55066;BME280;40964;42.114;24.220;2023-03-03T14:47:04;97733.06;;;9.02;82.30
55066;BME280;40964;42.114;24.220;2023-03-03T14:49:39;97743.06;;;8.74;84.20
55066;BME280;40964;42.114;24.220;2023-03-03T14:52:28;97732.34;;;8.75;85.39
55066;BME280;40964;42.114;24.220;2023-03-03T14:54:59;97742.47;;;8.65;85.96
55066;BME280;40964;42.114;24.220;2023-03-03T15:00:29;97742.47;;;8.32;87.79
55066;BME280;40964;42.114;24.220;2023-03-03T15:05:54;97717.69;;;7.68;90.31
55066;BME280;40964;42.114;24.220;2023-03-03T15:08:35;97738.00;;;7.60;91.81
55066;BME280;40964;42.114;24.220;2023-03-03T15:11:27;97736.59;;;7.51;93.28
55066;BME280;40964;42.114;24.220;2023-03-03T15:14:10;97745.19;;;7.31;93.46
55066;BME280;40964;42.114;24.220;2023-03-03T15:16:36;97735.13;;;7.28;93.46
55066;BME280;40964;42.114;24.220;2023-03-03T15:19:27;97742.13;;;7.21;93.53
55066;BME280;40964;42.114;24.220;2023-03-03T15:22:12;97742.75;;;7.23;94.94
55066;BME280;40964;42.114;24.220;2023-03-03T15:24:54;97742.31;;;7.13;94.68
55066;BME280;40964;42.114;24.220;2023-03-03T15:27:51;97743.56;;;7.30;94.80
55066;BME280;40964;42.114;24.220;2023-03-03T15:30:27;97741.38;;;7.34;94.14
55066;BME280;40964;42.114;24.220;2023-03-03T15:36:29;97752.44;;;7.36;93.38
55066;BME280;40964;42.114;24.220;2023-03-03T15:39:02;97750.25;;;7.39;94.41
55066;BME280;40964;42.114;24.220;2023-03-03T15:41:36;97755.31;;;7.48;93.90
55066;BME280;40964;42.114;24.220;2023-03-03T15:49:57;97748.84;;;7.44;94.40
55066;BME280;40964;42.114;24.220;2023-03-03T15:55:19;97756.28;;;7.40;94.29
55066;BME280;40964;42.114;24.220;2023-03-03T16:01:02;97760.13;;;7.51;95.91
55066;BME280;40964;42.114;24.220;2023-03-03T16:03:41;97759.94;;;7.52;93.82
55066;BME280;40964;42.114;24.220;2023-03-03T16:06:33;97772.25;;;7.58;93.37
55066;BME280;40964;42.114;24.220;2023-03-03T16:09:18;97762.97;;;7.62;93.93
55066;BME280;40964;42.114;24.220;2023-03-03T16:11:58;97755.53;;;7.59;94.37
55066;BME280;40964;42.114;24.220;2023-03-03T16:20:22;97774.50;;;7.75;98.28
55066;BME280;40964;42.114;24.220;2023-03-03T16:34:00;97791.59;;;7.77;100.00
55066;BME280;40964;42.114;24.220;2023-03-03T16:42:34;97795.81;;;7.72;100.00
55066;BME280;40964;42.114;24.220;2023-03-03T16:50:25;97801.47;;;7.75;100.00
55066;BME280;40964;42.114;24.220;2023-03-03T17:04:11;97816.59;;;7.73;100.00
55066;BME280;40964;42.114;24.220;2023-03-03T17:06:48;97814.34;;;7.70;100.00
55066;BME280;40964;42.114;24.220;2023-03-03T17:09:30;97824.81;;;7.70;100.00
55066;BME280;40964;42.114;24.220;2023-03-03T17:12:12;97827.44;;;7.70;100.00
55066;BME280;40964;42.114;24.220;2023-03-03T17:17:35;97827.00;;;7.60;100.00
55066;BME280;40964;42.114;24.220;2023-03-03T17:25:49;97835.81;;;7.52;100.00